Time;durP1;ratioP1;P1;durP2;ratioP2;P2;SDS_P1;SDS_P2;PMS_P1;PMS_P2;Temp;Humidity;BMP_temperature;BMP_pressure;BME280_temperature;BME280_humidity;BME280_pressure;Samples;Min_cycle;Max_cycle;Signal;HPM_P1;HPM_P2
2021/11/01 00:01:24;;;;;;;21.17;3.75;;;10.90;95.00;;;;;;5110180;28;20412;-73
2021/11/01 00:03:49;;;;;;;21.30;3.35;;;10.90;95.00;;;;;;5104033;28;20029;-73
2021/11/01 00:06:15;;;;;;;21.08;3.63;;;10.90;95.00;;;;;;5105929;28;20036;-72
2021/11/01 00:08:41;;;;;;;18.88;3.58;;;10.80;94.90;;;;;;5092678;28;20024;-72
2021/11/01 00:11:07;;;;;;;15.98;3.60;;;10.80;95.10;;;;;;5092049;28;20502;-73
2021/11/01 00:13:33;;;;;;;14.88;3.03;;;10.80;95.10;;;;;;5092541;28;20028;-73
2021/11/01 00:15:59;;;;;;;15.68;3.42;;;10.80;95.10;;;;;;5092212;28;20032;-73
2021/11/01 00:18:24;;;;;;;14.40;3.20;;;10.70;95.00;;;;;;5092552;28;20078;-73
2021/11/01 00:20:50;;;;;;;23.50;3.78;;;10.70;95.00;;;;;;5092596;28;20020;-73
2021/11/01 00:23:16;;;;;;;12.55;2.75;;;10.70;95.10;;;;;;5092213;28;20052;-72
2021/11/01 00:25:41;;;;;;;11.82;3.13;;;10.70;95.10;;;;;;5074377;28;20020;-72
2021/11/01 00:28:10;;;;;;;23.27;3.92;;;10.70;95.20;;;;;;5074157;28;20361;-72
2021/11/01 00:30:36;;;;;;;16.92;3.10;;;10.70;95.00;;;;;;5092455;28;20020;-73
2021/11/01 00:33:01;;;;;;;19.05;3.65;;;10.70;95.00;;;;;;5092093;28;20457;-73
2021/11/01 00:35:27;;;;;;;13.13;3.15;;;10.60;95.00;;;;;;5092182;28;20035;-72
2021/11/01 00:37:53;;;;;;;17.85;3.83;;;10.60;95.00;;;;;;5091877;28;20027;-72
2021/11/01 00:40:19;;;;;;;17.98;4.07;;;10.60;95.00;;;;;;5091940;28;20047;-72
2021/11/01 00:42:44;;;;;;;20.20;4.70;;;10.60;95.00;;;;;;5074050;28;20107;-72
2021/11/01 00:45:11;;;;;;;18.80;4.13;;;10.60;95.00;;;;;;5091949;28;20031;-73
2021/11/01 00:47:37;;;;;;;13.27;3.65;;;10.60;95.10;;;;;;5095598;28;20039;-73
2021/11/01 00:50:04;;;;;;;17.05;3.53;;;10.60;95.10;;;;;;5077804;28;20127;-74
2021/11/01 00:52:30;;;;;;;13.70;3.58;;;10.50;95.00;;;;;;5078102;28;20023;-73
2021/11/01 00:55:02;;;;;;;15.20;3.33;;;10.60;95.10;;;;;;5095747;28;20024;-71
2021/11/01 00:57:29;;;;;;;12.73;3.00;;;10.60;95.00;;;;;;5077596;28;20028;-73
2021/11/01 00:59:56;;;;;;;16.38;3.40;;;10.50;95.00;;;;;;5095740;28;20073;-73
2021/11/01 01:02:23;;;;;;;16.55;4.75;;;10.50;95.00;;;;;;5095745;28;20027;-73
2021/11/01 01:04:49;;;;;;;21.10;3.85;;;10.50;95.00;;;;;;5095454;28;20028;-73
2021/11/01 01:07:15;;;;;;;14.45;3.45;;;10.50;95.00;;;;;;5095250;28;20488;-73
2021/11/01 01:09:40;;;;;;;12.35;2.60;;;10.40;95.20;;;;;;5096089;28;20029;-73
2021/11/01 01:12:07;;;;;;;20.98;3.65;;;10.40;95.10;;;;;;5095230;28;20465;-73
2021/11/01 01:14:40;;;;;;;15.20;3.22;;;10.50;95.00;;;;;;5095392;28;20400;-73
2021/11/01 01:17:06;;;;;;;16.33;3.20;;;10.40;94.90;;;;;;5095396;28;20035;-73
2021/11/01 01:19:43;;;;;;;13.73;2.38;;;10.40;94.80;;;;;;5095501;28;20456;-74
2021/11/01 01:22:19;;;;;;;15.07;2.65;;;10.40;94.90;;;;;;5095286;28;20028;-72
2021/11/01 01:24:45;;;;;;;16.92;3.05;;;10.40;94.80;;;;;;5095390;28;20035;-72
2021/11/01 01:27:11;;;;;;;12.15;2.45;;;10.30;94.90;;;;;;5076674;28;20020;-72
2021/11/01 01:29:37;;;;;;;13.13;2.90;;;10.30;94.90;;;;;;5096344;28;20506;-73
2021/11/01 01:32:02;;;;;;;15.88;3.28;;;10.30;95.00;;;;;;5095623;28;20020;-72
2021/11/01 01:34:28;;;;;;;10.57;2.80;;;10.30;95.10;;;;;;5095004;28;20055;-73
2021/11/01 01:36:54;;;;;;;15.25;3.42;;;10.30;94.80;;;;;;5095073;28;20054;-73
2021/11/01 01:39:19;;;;;;;11.75;3.40;;;10.30;94.90;;;;;;5076817;28;20031;-73
2021/11/01 01:41:46;;;;;;;11.50;3.03;;;10.30;94.90;;;;;;5076822;28;20032;-73
2021/11/01 01:44:13;;;;;;;14.68;2.38;;;10.30;94.80;;;;;;5094979;28;20020;-72
2021/11/01 01:46:38;;;;;;;16.13;3.20;;;10.30;94.80;;;;;;5095776;28;20456;-73
2021/11/01 01:49:04;;;;;;;8.23;2.40;;;10.30;94.80;;;;;;5083295;28;20032;-72
2021/11/01 01:51:30;;;;;;;10.73;2.40;;;10.30;94.70;;;;;;5111233;28;20028;-72
2021/11/01 01:53:58;;;;;;;14.45;2.78;;;10.30;94.70;;;;;;5107972;28;20036;-72
2021/11/01 01:56:25;;;;;;;11.68;2.53;;;10.20;94.30;;;;;;5105974;28;20468;-73
2021/11/01 01:58:56;;;;;;;13.48;2.42;;;10.30;94.50;;;;;;5076501;28;20164;-73
2021/11/01 02:01:22;;;;;;;13.48;2.55;;;10.20;94.50;;;;;;5094026;28;20121;-73
2021/11/01 02:03:50;;;;;;;16.23;3.05;;;10.20;94.50;;;;;;5094353;28;20522;-73
2021/11/01 02:06:50;;;;;;;16.02;2.60;;;10.20;94.20;;;;;;5076556;28;20024;-73
2021/11/01 02:09:35;;;;;;;14.70;3.00;;;10.20;94.30;;;;;;5076437;28;20038;-73
2021/11/01 02:12:09;;;;;;;13.93;2.35;;;10.20;94.40;;;;;;5076285;28;20434;-72
2021/11/01 02:14:48;;;;;;;14.18;2.80;;;10.20;94.30;;;;;;5094596;28;20024;-73
2021/11/01 02:17:22;;;;;;;16.10;2.40;;;10.20;94.10;;;;;;5096430;28;20035;-73
2021/11/01 02:19:52;;;;;;;14.70;3.72;;;10.20;94.20;;;;;;5077958;28;20043;-72
2021/11/01 02:22:42;;;;;;;14.35;2.80;;;10.20;94.30;;;;;;5094955;28;20025;-73
2021/11/01 02:25:14;;;;;;;9.73;2.90;;;10.10;94.30;;;;;;5092778;28;20130;-73
2021/11/01 02:27:43;;;;;;;14.52;2.65;;;10.10;94.50;;;;;;5076035;28;20016;-73
2021/11/01 02:30:11;;;;;;;13.57;3.17;;;10.20;94.30;;;;;;5094056;28;20039;-73
2021/11/01 02:32:39;;;;;;;6.68;1.75;;;10.10;94.50;;;;;;5094419;28;20081;-72
2021/11/01 02:35:06;;;;;;;14.25;2.40;;;10.20;94.50;;;;;;5093827;28;20099;-72
2021/11/01 02:37:32;;;;;;;15.40;2.33;;;10.20;94.70;;;;;;5075938;28;20012;-73
2021/11/01 02:39:58;;;;;;;12.18;1.67;;;10.20;94.20;;;;;;5094001;28;20365;-73
2021/11/01 02:42:27;;;;;;;16.85;2.58;;;10.20;94.20;;;;;;5094072;28;20112;-74
2021/11/01 02:45:13;;;;;;;14.43;2.40;;;10.10;94.20;;;;;;5093825;28;20028;-73
2021/11/01 02:47:39;;;;;;;8.95;1.90;;;10.10;94.10;;;;;;5093887;28;20028;-73
2021/11/01 02:50:09;;;;;;;16.75;1.83;;;10.10;94.40;;;;;;5093703;28;20457;-73
2021/11/01 02:52:35;;;;;;;8.60;2.15;;;10.10;94.30;;;;;;5094149;28;20028;-74
2021/11/01 02:55:02;;;;;;;12.57;1.88;;;10.10;94.40;;;;;;5075740;28;20028;-73
2021/11/01 02:57:28;;;;;;;14.45;2.33;;;10.10;94.50;;;;;;5093797;28;20460;-73
2021/11/01 02:59:54;;;;;;;16.58;3.13;;;10.10;94.60;;;;;;5075490;28;20042;-71
2021/11/01 03:02:21;;;;;;;10.43;1.80;;;10.10;94.40;;;;;;5093408;28;20353;-73
2021/11/01 03:04:47;;;;;;;21.13;2.28;;;10.10;95.00;;;;;;5093179;28;20042;-75
2021/11/01 03:07:14;;;;;;;12.23;2.40;;;10.10;95.10;;;;;;5093048;28;20435;-73
2021/11/01 03:09:44;;;;;;;10.82;2.65;;;10.00;94.90;;;;;;5093035;28;20024;-74
2021/11/01 03:12:12;;;;;;;;;;;10.00;94.90;;;;;;5093769;28;20020;-73
2021/11/01 03:14:45;;;;;;;13.68;3.30;;;10.00;94.80;;;;;;5075171;28;19911;-73
2021/11/01 03:17:14;;;;;;;12.77;2.17;;;10.00;94.80;;;;;;5093289;28;20027;-73
2021/11/01 03:19:42;;;;;;;14.52;2.53;;;10.00;95.00;;;;;;5093756;28;20028;-73
2021/11/01 03:22:08;;;;;;;16.30;3.22;;;10.00;94.70;;;;;;5093133;28;20048;-71
2021/11/01 03:24:38;;;;;;;12.02;2.58;;;10.00;95.00;;;;;;5075014;28;20533;-72
2021/11/01 03:27:06;;;;;;;20.13;3.30;;;10.00;95.00;;;;;;5074909;28;20464;-73
2021/11/01 03:29:34;;;;;;;10.23;2.35;;;10.00;95.00;;;;;;5093016;28;20077;-73
2021/11/01 03:32:02;;;;;;;8.20;2.15;;;9.90;94.90;;;;;;5093367;28;20093;-73
2021/11/01 03:34:28;;;;;;;11.88;2.75;;;9.90;94.90;;;;;;5093077;28;20055;-73
2021/11/01 03:36:56;;;;;;;11.73;2.40;;;9.90;94.70;;;;;;5093733;28;20112;-72
2021/11/01 03:39:23;;;;;;;13.18;2.83;;;9.90;94.80;;;;;;5104100;28;20004;-73
2021/11/01 03:41:50;;;;;;;6.45;1.90;;;9.90;94.80;;;;;;5104939;28;20032;-72
2021/11/01 03:44:19;;;;;;;10.82;2.17;;;9.90;94.90;;;;;;5090119;28;20027;-73
2021/11/01 03:46:54;;;;;;;11.43;2.15;;;9.80;94.80;;;;;;5096811;28;20025;-74
2021/11/01 03:49:20;;;;;;;10.35;2.58;;;9.90;94.90;;;;;;5092466;28;20069;-72
2021/11/01 03:51:50;;;;;;;9.75;2.40;;;9.80;94.90;;;;;;5092602;28;20016;-73
2021/11/01 03:54:20;;;;;;;17.77;2.88;;;9.80;94.80;;;;;;5092645;28;20016;-74
2021/11/01 03:56:47;;;;;;;9.38;2.30;;;9.80;95.00;;;;;;5074271;28;20020;-73
2021/11/01 03:59:14;;;;;;;10.57;2.30;;;9.80;95.10;;;;;;5092774;28;20107;-73
2021/11/01 04:01:43;;;;;;;12.02;2.15;;;9.80;95.10;;;;;;5074662;28;20027;-73
2021/11/01 04:04:09;;;;;;;11.65;2.65;;;9.80;95.00;;;;;;5092165;28;20044;-72
2021/11/01 04:06:38;;;;;;;14.27;3.15;;;9.80;95.00;;;;;;5092912;28;20036;-73
2021/11/01 04:09:04;;;;;;;9.95;2.63;;;9.70;95.00;;;;;;5093907;28;20107;-74
2021/11/01 04:11:31;;;;;;;10.73;2.15;;;9.70;95.10;;;;;;5076065;28;20024;-73
2021/11/01 04:14:01;;;;;;;14.75;2.03;;;9.70;95.00;;;;;;5094228;28;20028;-73
2021/11/01 04:16:36;;;;;;;15.57;2.72;;;9.70;95.30;;;;;;5092645;28;20027;-73
2021/11/01 04:19:31;;;;;;;9.23;3.15;;;9.80;95.30;;;;;;5092660;28;20023;-74
2021/11/01 04:21:51;;;;;;;10.00;2.15;;;9.70;95.10;;;;;;5095961;28;20077;-73
2021/11/01 04:24:19;;;;;;;14.05;2.72;;;9.70;95.20;;;;;;5096512;28;20032;-74
2021/11/01 04:26:45;;;;;;;12.20;2.22;;;9.70;95.40;;;;;;5096572;28;20035;-72
2021/11/01 04:29:12;;;;;;;8.25;1.98;;;9.70;95.20;;;;;;5077934;28;20024;-72
2021/11/01 04:31:40;;;;;;;13.82;2.78;;;9.80;95.20;;;;;;5096300;28;20024;-72
2021/11/01 04:34:16;;;;;;;14.10;2.58;;;9.80;95.30;;;;;;5096517;28;20028;-73
2021/11/01 04:36:42;;;;;;;15.10;2.13;;;9.80;95.20;;;;;;5096465;28;20020;-72
2021/11/01 04:42:18;;;;;;;11.93;2.53;;;9.80;95.00;;;;;;5096477;28;20056;-73
2021/11/01 04:52:54;;;;;;;12.82;2.60;;;9.80;95.00;;;;;;5096085;28;20039;-73
2021/11/01 04:53:12;;;;;;;9.27;2.17;;;9.80;95.10;;;;;;5096350;28;20137;-73
2021/11/01 04:55:42;;;;;;;9.73;2.95;;;9.80;95.10;;;;;;5096109;28;20488;-73
2021/11/01 04:58:08;;;;;;;20.38;2.53;;;9.80;95.00;;;;;;5096340;28;20024;-73
2021/11/01 05:00:34;;;;;;;11.02;2.00;;;9.90;95.00;;;;;;5096475;28;20027;-73
2021/11/01 05:03:14;;;;;;;10.25;1.80;;;9.80;95.00;;;;;;5096499;28;20028;-74
2021/11/01 05:05:40;;;;;;;;;;;9.80;95.10;;;;;;5096571;28;20051;-73
2021/11/01 05:08:06;;;;;;;12.75;2.55;;;9.80;95.00;;;;;;5096187;28;20328;-73
2021/11/01 05:10:39;;;;;;;11.88;3.78;;;9.80;95.00;;;;;;5095758;28;20512;-74
2021/11/01 05:13:10;;;;;;;10.93;2.60;;;9.80;94.90;;;;;;5077606;28;20371;-73
2021/11/01 05:15:41;;;;;;;9.32;1.77;;;9.80;95.20;;;;;;5095719;28;20039;-73
2021/11/01 05:18:29;;;;;;;11.75;2.80;;;9.80;95.20;;;;;;5095394;28;20391;-73
2021/11/01 05:23:31;;;;;;;12.93;2.75;;;9.80;94.70;;;;;;5095409;28;20035;-72
2021/11/01 05:26:18;;;;;;;10.63;2.22;;;9.80;95.10;;;;;;5095450;28;20046;-72
2021/11/01 05:28:51;;;;;;;8.57;2.72;;;9.80;95.10;;;;;;5104929;28;20034;-72
2021/11/01 05:31:20;;;;;;;10.35;2.80;;;9.80;94.80;;;;;;5106329;28;20054;-73
2021/11/01 05:36:18;;;;;;;11.13;2.50;;;9.80;94.70;;;;;;5101648;28;20032;-73
2021/11/01 05:38:44;;;;;;;10.45;2.63;;;9.80;94.80;;;;;;5097154;28;20024;-73
2021/11/01 05:41:10;;;;;;;12.88;2.55;;;9.70;94.90;;;;;;5095202;28;20464;-73
2021/11/01 05:43:36;;;;;;;15.10;2.60;;;9.80;95.00;;;;;;5095077;28;20035;-73
2021/11/01 05:46:02;;;;;;;8.00;1.95;;;9.70;94.90;;;;;;5095578;28;20024;-72
2021/11/01 05:48:28;;;;;;;13.35;3.17;;;9.80;95.10;;;;;;5094881;28;20028;-72
2021/11/01 05:50:54;;;;;;;10.85;2.35;;;9.80;95.00;;;;;;5095544;28;20023;-73
2021/11/01 05:53:21;;;;;;;9.70;2.15;;;9.80;94.90;;;;;;5095366;28;20021;-72
2021/11/01 05:56:11;;;;;;;10.68;1.70;;;9.80;94.60;;;;;;5096437;28;20097;-73
2021/11/01 05:58:40;;;;;;;13.57;2.63;;;9.70;94.80;;;;;;5094452;28;20490;-73
2021/11/01 06:03:43;;;;;;;7.97;2.42;;;9.70;94.70;;;;;;5096502;28;20400;-73
2021/11/01 06:09:05;;;;;;;12.98;2.45;;;9.70;94.80;;;;;;5096114;28;20038;-73
2021/11/01 06:14:14;;;;;;;13.25;3.28;;;9.70;94.50;;;;;;5094168;28;20066;-72
2021/11/01 06:16:40;;;;;;;10.13;2.63;;;9.70;94.40;;;;;;5094313;28;20055;-73
2021/11/01 06:19:06;;;;;;;12.32;3.20;;;9.70;94.60;;;;;;5076354;28;20051;-72
2021/11/01 06:21:32;;;;;;;14.85;2.50;;;9.70;94.60;;;;;;5076073;28;20400;-73
2021/11/01 06:24:01;;;;;;;9.13;2.15;;;9.70;94.60;;;;;;5076006;28;20024;-73
2021/11/01 06:26:28;;;;;;;15.07;2.60;;;9.70;94.60;;;;;;5093907;28;20464;-73
2021/11/01 06:29:00;;;;;;;11.30;2.92;;;9.70;94.50;;;;;;5075954;28;20051;-72
2021/11/01 06:31:32;;;;;;;16.58;2.33;;;9.80;94.60;;;;;;5093963;28;20021;-72
2021/11/01 06:39:44;;;;;;;7.05;1.75;;;9.90;94.60;;;;;;5094069;28;20396;-73
2021/11/01 06:42:19;;;;;;;20.25;2.92;;;9.90;94.30;;;;;;5093959;28;20031;-73
2021/11/01 06:53:06;;;;;;;11.32;2.47;;;10.00;94.00;;;;;;5011510;28;20025;-73
2021/11/01 07:17:39;;;;;;;18.73;3.50;;;11.30;91.40;;;;;;5084459;28;20028;-74
2021/11/01 07:25:39;;;;;;;12.88;1.83;;;12.20;89.40;;;;;;5090001;28;20036;-71
2021/11/01 09:05:34;;;;;;;11.65;1.70;;;12.60;84.60;;;;;;5089360;28;20075;-73
2021/11/01 09:26:36;;;;;;;12.27;2.97;;;12.50;87.40;;;;;;5089340;28;20035;-73
2021/11/01 09:42:33;;;;;;;10.75;1.90;;;13.10;86.10;;;;;;5075225;28;20038;-73
2021/11/01 09:44:59;;;;;;;12.18;2.00;;;13.10;84.50;;;;;;5057394;28;20445;-72
2021/11/01 09:47:25;;;;;;;10.68;1.80;;;13.10;85.10;;;;;;5076912;28;20021;-73
2021/11/01 09:49:57;;;;;;;9.82;1.70;;;13.10;80.70;;;;;;5076872;28;20052;-75
2021/11/01 09:52:24;;;;;;;9.65;2.38;;;13.50;84.20;;;;;;5075625;28;20385;-74
2021/11/01 09:54:53;;;;;;;7.05;2.38;;;14.30;78.90;;;;;;5057028;28;20377;-75
2021/11/01 09:57:22;;;;;;;10.77;2.15;;;14.50;80.10;;;;;;5057096;28;20487;-73
2021/11/01 09:59:48;;;;;;;12.00;2.00;;;14.80;77.40;;;;;;5074772;28;20025;-73
2021/11/01 10:02:17;;;;;;;15.27;2.55;;;15.40;74.80;;;;;;5074768;28;20031;-73
2021/11/01 10:04:46;;;;;;;13.23;2.25;;;15.70;76.40;;;;;;5074573;28;20109;-73
2021/11/01 10:07:21;;;;;;;8.18;2.08;;;16.40;74.40;;;;;;5075041;28;20024;-73
2021/11/01 10:10:11;;;;;;;6.82;1.80;;;16.80;71.40;;;;;;5074963;28;20024;-74
2021/11/01 10:12:39;;;;;;;14.70;1.70;;;17.10;69.20;;;;;;5062950;28;20558;-73
2021/11/01 10:18:06;;;;;;;8.40;1.55;;;17.30;72.90;;;;;;5073815;28;20385;-73
2021/11/01 10:20:35;;;;;;;6.45;1.60;;;17.30;66.00;;;;;;5074065;28;20027;-74
2021/11/01 10:23:12;;;;;;;7.93;2.17;;;16.40;72.70;;;;;;5074068;28;20028;-74
2021/11/01 10:25:37;;;;;;;9.50;2.00;;;15.80;73.70;;;;;;5074253;28;20115;-73
2021/11/01 10:28:04;;;;;;;9.55;1.90;;;15.90;77.40;;;;;;5075028;28;20106;-73
2021/11/01 10:30:33;;;;;;;6.97;1.88;;;16.30;71.40;;;;;;5074629;28;20056;-74
2021/11/01 10:33:03;;;;;;;7.20;2.08;;;16.40;71.60;;;;;;5074076;28;20153;-75
2021/11/01 10:35:30;;;;;;;8.68;2.25;;;16.70;70.40;;;;;;5074496;28;20016;-73
2021/11/01 10:38:20;;;;;;;7.72;1.58;;;16.60;74.00;;;;;;5055565;28;20028;-72
2021/11/01 10:57:28;;;;;;;5.65;1.70;;;15.30;74.90;;;;;;5090361;28;20499;-72
2021/11/01 11:13:25;;;;;;;8.13;1.40;;;17.70;65.40;;;;;;5073211;28;20060;-73
2021/11/01 11:15:54;;;;;;;8.65;1.35;;;17.20;67.00;;;;;;5054841;28;20024;-73
2021/11/01 11:21:21;;;;;;;11.23;2.45;;;17.10;66.00;;;;;;5073025;28;20090;-74
2021/11/01 11:32:17;;;;;;;8.90;1.63;;;17.70;68.90;;;;;;5072822;28;20032;-73
2021/11/01 11:38:00;;;;;;;4.43;1.38;;;17.70;63.30;;;;;;5073371;28;20094;-73
2021/11/01 11:49:13;;;;;;;5.63;1.27;;;16.20;71.80;;;;;;5072403;28;20081;-74
2021/11/01 11:51:39;;;;;;;7.13;1.70;;;15.90;71.70;;;;;;5072177;28;20017;-72
2021/11/01 11:54:07;;;;;;;6.97;1.80;;;15.70;69.90;;;;;;5072757;28;20035;-75
2021/11/01 11:56:37;;;;;;;9.02;1.50;;;15.40;76.00;;;;;;5054549;28;20389;-74
2021/11/01 11:59:10;;;;;;;6.95;1.50;;;15.50;74.70;;;;;;5054589;28;20501;-74
2021/11/01 12:01:38;;;;;;;9.95;2.30;;;15.50;72.70;;;;;;5054218;28;20052;-73
2021/11/01 12:04:29;;;;;;;6.90;1.17;;;15.50;75.90;;;;;;5054223;28;20580;-74
2021/11/01 12:07:00;;;;;;;4.32;1.20;;;15.40;72.50;;;;;;5054407;28;20036;-73
2021/11/01 12:09:40;;;;;;;11.10;1.90;;;15.10;75.20;;;;;;5054379;28;20021;-74
2021/11/01 12:17:23;;;;;;;6.82;1.63;;;15.80;71.70;;;;;;5072539;28;20457;-74
2021/11/01 12:19:49;;;;;;;7.45;0.93;;;16.80;67.10;;;;;;5072307;28;20027;-73
2021/11/01 12:22:27;;;;;;;8.80;1.60;;;16.90;68.30;;;;;;5071998;28;20078;-73
2021/11/01 12:24:56;;;;;;;8.02;1.30;;;16.80;68.40;;;;;;5071952;28;20124;-74
2021/11/01 12:27:22;;;;;;;4.68;1.30;;;17.20;70.40;;;;;;5072669;28;20477;-73
2021/11/01 12:29:51;;;;;;;7.88;1.42;;;17.70;68.00;;;;;;5072318;28;20036;-74
2021/11/01 12:32:17;;;;;;;5.55;1.30;;;18.20;63.60;;;;;;5072320;28;20396;-74
2021/11/01 12:35:04;;;;;;;4.63;1.10;;;18.30;66.50;;;;;;5054093;28;20031;-73
2021/11/01 12:37:32;;;;;;;6.82;1.60;;;18.00;64.30;;;;;;5072277;28;20024;-74
2021/11/01 12:49:01;;;;;;;7.70;1.45;;;16.30;71.30;;;;;;5080952;28;20025;-70
2021/11/01 12:59:40;;;;;;;10.23;1.42;;;16.90;65.60;;;;;;5076366;28;20044;-74
2021/11/01 13:02:09;;;;;;;8.18;2.22;;;16.70;71.00;;;;;;5076059;28;20108;-72
2021/11/01 13:04:38;;;;;;;5.45;1.50;;;16.40;63.00;;;;;;5075272;28;20032;-73
2021/11/01 13:09:36;;;;;;;8.25;1.55;;;15.80;80.90;;;;;;5075901;28;20027;-74
2021/11/01 13:14:58;;;;;;;5.68;1.45;;;17.10;67.40;;;;;;5076019;28;20040;-74
2021/11/01 13:20:20;;;;;;;8.20;1.48;;;18.10;60.30;;;;;;5075400;28;20063;-73
2021/11/01 13:22:47;;;;;;;8.02;1.30;;;18.50;61.70;;;;;;5075006;28;20051;-74
2021/11/01 13:38:40;;;;;;;9.02;2.08;;;18.10;59.70;;;;;;5075499;28;20063;-74
2021/11/01 13:41:17;;;;;;;7.45;1.67;;;17.50;60.90;;;;;;5075085;28;20082;-74
2021/11/01 13:43:44;;;;;;;5.40;1.30;;;16.90;62.50;;;;;;5074823;28;20020;-73
2021/11/01 13:46:15;;;;;;;8.93;1.20;;;16.40;67.20;;;;;;5075498;28;20072;-73
2021/11/01 13:48:42;;;;;;;7.60;1.35;;;16.50;66.80;;;;;;5075163;28;20190;-74
2021/11/01 13:51:12;;;;;;;4.75;1.33;;;16.40;71.20;;;;;;5074722;28;20036;-74
2021/11/01 13:53:58;;;;;;;10.05;1.40;;;16.20;77.10;;;;;;5074104;28;20020;-74
2021/11/01 13:56:31;;;;;;;8.05;1.75;;;16.00;67.20;;;;;;5074398;28;20059;-73
2021/11/01 13:59:00;;;;;;;5.10;1.38;;;16.00;67.90;;;;;;5056283;28;20236;-74
2021/11/01 14:17:29;;;;;;;6.85;1.20;;;15.00;69.60;;;;;;5074482;28;20465;-74
2021/11/01 15:00:37;;;;;;;6.05;1.67;;;14.00;78.50;;;;;;5073322;28;20436;-73
2021/11/01 15:23:56;;;;;;;7.70;1.75;;;13.70;73.70;;;;;;5086826;28;20488;-72
2021/11/01 15:29:19;;;;;;;5.90;1.25;;;13.50;77.70;;;;;;5085148;28;20496;-73
2021/11/01 16:20:10;;;;;;;6.90;1.40;;;12.50;78.20;;;;;;5044068;28;20400;-73
2021/11/01 16:22:39;;;;;;;6.70;1.75;;;12.50;77.90;;;;;;5083169;28;20082;-73
2021/11/01 16:25:05;;;;;;;7.75;1.73;;;12.50;78.30;;;;;;5081038;28;20033;-74
2021/11/01 16:27:31;;;;;;;9.13;2.05;;;12.40;77.80;;;;;;5087937;28;20059;-73
2021/11/01 16:32:31;;;;;;;9.02;2.05;;;12.30;78.90;;;;;;5072141;28;20032;-72
2021/11/01 16:34:59;;;;;;;9.50;2.13;;;12.30;78.80;;;;;;5071717;28;20281;-73
2021/11/01 16:37:49;;;;;;;6.68;1.65;;;12.30;79.80;;;;;;5053784;28;20116;-73
2021/11/01 16:40:15;;;;;;;13.07;1.88;;;12.30;79.30;;;;;;5053982;28;20036;-73
2021/11/01 16:42:43;;;;;;;8.77;2.85;;;12.20;79.40;;;;;;5071598;28;20025;-73
2021/11/01 16:45:18;;;;;;;12.38;2.70;;;12.10;79.90;;;;;;5071574;28;20040;-72
2021/11/01 16:47:46;;;;;;;9.20;2.35;;;12.10;80.00;;;;;;5071693;28;20111;-72
2021/11/01 16:50:16;;;;;;;7.07;1.55;;;12.10;80.40;;;;;;5071882;28;20028;-72
2021/11/01 16:52:44;;;;;;;8.60;2.75;;;12.10;80.50;;;;;;5072305;28;20020;-72
2021/11/01 16:55:22;;;;;;;9.57;1.63;;;12.10;80.50;;;;;;5053565;28;20423;-72
2021/11/01 16:57:55;;;;;;;9.15;2.70;;;12.10;80.20;;;;;;5071837;28;20054;-73
2021/11/01 17:05:36;;;;;;;7.28;1.75;;;12.10;84.80;;;;;;5071232;28;20083;-73
2021/11/01 18:38:49;;;;;;;3.63;1.30;;;10.60;91.80;;;;;;5074051;28;20405;-73
2021/11/01 18:41:18;;;;;;;3.28;1.15;;;10.60;91.90;;;;;;5073589;28;20020;-72
2021/11/01 18:51:51;;;;;;;5.28;1.83;;;10.50;92.10;;;;;;5073657;28;20087;-73
2021/11/01 18:54:21;;;;;;;4.15;1.35;;;10.50;92.00;;;;;;5055804;28;20074;-73
2021/11/01 18:56:49;;;;;;;4.43;1.48;;;10.40;92.20;;;;;;5055877;28;20080;-73
2021/11/01 18:59:17;;;;;;;2.42;1.45;;;10.40;92.10;;;;;;5056745;28;20485;-72
2021/11/01 19:01:48;;;;;;;7.90;1.73;;;10.30;92.20;;;;;;5074653;28;20021;-72
2021/11/01 19:04:21;;;;;;;2.63;1.20;;;10.20;92.20;;;;;;5055828;28;20533;-73
2021/11/01 20:05:10;;;;;;;5.15;3.30;;;9.40;93.70;;;;;;5088384;28;20261;-73
2021/11/01 20:15:56;;;;;;;6.38;3.80;;;9.30;93.80;;;;;;5072374;28;20033;-71
2021/11/01 21:25:41;;;;;;;14.00;6.68;;;8.70;94.40;;;;;;5074898;28;20055;-72
2021/11/01 21:28:06;;;;;;;12.98;6.45;;;8.70;94.30;;;;;;5056943;28;20021;-73
2021/11/01 21:30:32;;;;;;;15.98;7.15;;;8.70;94.30;;;;;;5074858;28;20031;-72
2021/11/01 21:32:58;;;;;;;10.27;5.93;;;8.70;94.50;;;;;;5074860;28;20028;-72
2021/11/01 21:35:28;;;;;;;8.85;5.72;;;8.70;94.50;;;;;;5074723;28;20028;-72
2021/11/01 21:37:54;;;;;;;13.38;5.82;;;8.70;94.60;;;;;;5057153;28;20022;-73
2021/11/01 21:40:20;;;;;;;10.20;6.82;;;8.70;94.60;;;;;;5075093;28;20424;-73
2021/11/01 21:42:46;;;;;;;13.27;6.35;;;8.70;94.60;;;;;;5057421;28;20024;-73
2021/11/01 21:45:12;;;;;;;11.13;6.65;;;8.70;94.80;;;;;;5075772;28;20036;-72
2021/11/01 21:47:39;;;;;;;8.93;5.03;;;8.80;94.80;;;;;;5076705;28;20024;-71
2021/11/01 21:50:06;;;;;;;9.77;5.05;;;8.70;94.80;;;;;;5077001;28;20080;-72
2021/11/01 21:52:34;;;;;;;10.43;5.22;;;8.80;94.70;;;;;;5080989;28;20019;-73
2021/11/01 21:55:06;;;;;;;9.70;6.07;;;8.80;94.60;;;;;;5093195;28;20495;-73
2021/11/01 22:00:39;;;;;;;8.75;4.47;;;8.70;94.50;;;;;;5074423;28;20035;-73
2021/11/01 22:16:52;;;;;;;9.63;5.95;;;8.70;94.60;;;;;;5074645;28;20169;-73
2021/11/01 22:24:30;;;;;;;9.93;5.90;;;8.70;94.90;;;;;;5074011;28;20039;-73
2021/11/01 22:40:41;;;;;;;21.50;8.30;;;8.60;94.90;;;;;;5074676;28;20082;-73
2021/11/01 22:43:43;;;;;;;15.50;8.63;;;8.60;95.00;;;;;;5075059;28;20024;-79
2021/11/01 22:56:49;;;;;;;9.63;5.35;;;8.60;95.10;;;;;;5073465;28;20094;-73
2021/11/01 22:59:15;;;;;;;21.85;8.10;;;8.50;95.00;;;;;;5073460;28;20021;-73
2021/11/01 23:01:42;;;;;;;15.13;6.63;;;8.60;95.20;;;;;;5073523;28;20111;-73
2021/11/01 23:29:13;;;;;;;12.30;7.53;;;8.50;95.20;;;;;;5073152;28;20127;-73
2021/11/01 23:31:42;;;;;;;17.65;7.57;;;8.40;95.20;;;;;;5073052;28;20032;-72
2021/11/01 23:34:13;;;;;;;15.80;8.35;;;8.40;95.60;;;;;;5055232;28;20021;-73
2021/11/01 23:36:40;;;;;;;15.30;7.03;;;8.40;95.30;;;;;;5076233;28;20052;-73
2021/11/01 23:39:08;;;;;;;16.67;7.72;;;8.30;95.20;;;;;;5091550;28;20024;-74
2021/11/01 23:41:35;;;;;;;17.73;9.27;;;8.40;95.40;;;;;;5064511;28;20000;-72
2021/11/01 23:44:02;;;;;;;10.15;5.97;;;8.30;95.40;;;;;;5068812;28;20016;-73
2021/11/01 23:46:28;;;;;;;14.38;7.20;;;8.30;95.40;;;;;;5073831;28;20079;-72
2021/11/01 23:48:53;;;;;;;16.85;7.20;;;8.30;95.40;;;;;;5077745;28;20020;-71
2021/11/01 23:51:29;;;;;;;15.75;7.53;;;8.30;95.40;;;;;;5075250;28;20028;-73
2021/11/01 23:56:27;;;;;;;15.13;6.90;;;8.30;95.40;;;;;;5074155;28;20392;-72
2021/11/01 23:58:53;;;;;;;14.13;7.28;;;8.30;95.40;;;;;;5055120;28;20020;-73
